VOE98O LFBT-LFPO
Flight info
| Callsign | VOE98O |
|---|---|
| Flight time | N/A |
| Altitude | 28000 |
| Route | USAKU DCT AGN DCT DIBAG DCT TUDRA DCT BEVOL UT158 AMB |
| Aircraft | A319/M-SDE3FGHIRWY/LB1 |
Departure
| Time | N/A |
|---|---|
| Airport | Tarbes-Lourdes-Pyrénées Airport (LFBT) |
Arrival
| Time | 2026-05-07 16:03 |
|---|---|
| Airport | Paris-Orly Airport (LFPO) |
| Time | Latitude | Longitude | Altitude | Speed | Heading |
|---|---|---|---|---|---|
| 2026-05-07 15:35 | 46.62112 | 0.80673 | 38030 ft | 463 kts | 8° |
| 2026-05-07 15:36 | 46.68383 | 0.82624 | 38001 ft | 462 kts | 9° |
| 2026-05-07 15:36 | 46.74696 | 0.84625 | 37551 ft | 466 kts | 9° |
| 2026-05-07 15:37 | 46.77859 | 0.85635 | 36628 ft | 471 kts | 9° |
| 2026-05-07 15:37 | 46.81077 | 0.86663 | 35818 ft | 474 kts | 9° |
| 2026-05-07 15:37 | 46.84311 | 0.87694 | 35141 ft | 472 kts | 9° |
| 2026-05-07 15:37 | 46.87484 | 0.88710 | 34571 ft | 469 kts | 9° |
| 2026-05-07 15:38 | 46.90669 | 0.89731 | 33682 ft | 472 kts | 9° |
| 2026-05-07 15:38 | 46.93900 | 0.90770 | 32803 ft | 473 kts | 9° |
| 2026-05-07 15:38 | 46.97077 | 0.91789 | 32016 ft | 471 kts | 9° |
| 2026-05-07 15:38 | 47.00254 | 0.92802 | 31524 ft | 463 kts | 9° |
| 2026-05-07 15:39 | 47.03408 | 0.93806 | 30882 ft | 459 kts | 10° |
| 2026-05-07 15:39 | 47.06478 | 0.94781 | 30302 ft | 454 kts | 10° |
| 2026-05-07 15:39 | 47.09554 | 0.95757 | 29696 ft | 448 kts | 10° |
| 2026-05-07 15:39 | 47.12592 | 0.96723 | 29173 ft | 442 kts | 10° |
| 2026-05-07 15:40 | 47.15551 | 0.97665 | 28646 ft | 437 kts | 10° |
| 2026-05-07 15:40 | 47.18508 | 0.98594 | 28126 ft | 430 kts | 10° |
| 2026-05-07 15:40 | 47.21416 | 0.99525 | 27615 ft | 425 kts | 10° |
| 2026-05-07 15:40 | 47.24286 | 1.00456 | 27112 ft | 419 kts | 11° |
| 2026-05-07 15:41 | 47.27096 | 1.01373 | 26629 ft | 414 kts | 10° |
| 2026-05-07 15:41 | 47.29890 | 1.02274 | 26287 ft | 408 kts | 10° |
| 2026-05-07 15:41 | 47.32660 | 1.03165 | 25807 ft | 406 kts | 10° |
| 2026-05-07 15:41 | 47.35385 | 1.04040 | 25340 ft | 403 kts | 10° |
| 2026-05-07 15:42 | 47.38132 | 1.04924 | 24878 ft | 400 kts | 10° |
| 2026-05-07 15:42 | 47.40827 | 1.05792 | 24387 ft | 399 kts | 10° |
| 2026-05-07 15:42 | 47.43530 | 1.06787 | 23934 ft | 398 kts | 17° |
| 2026-05-07 15:42 | 47.46097 | 1.08124 | 23604 ft | 391 kts | 18° |
| 2026-05-07 15:43 | 47.48672 | 1.09454 | 23042 ft | 390 kts | 17° |
| 2026-05-07 15:43 | 47.51196 | 1.10744 | 22613 ft | 386 kts | 17° |
| 2026-05-07 15:43 | 47.53741 | 1.12032 | 22205 ft | 383 kts | 17° |
| 2026-05-07 15:43 | 47.56276 | 1.13303 | 21718 ft | 382 kts | 17° |
| 2026-05-07 15:44 | 47.58747 | 1.14541 | 21322 ft | 378 kts | 17° |
| 2026-05-07 15:44 | 47.61247 | 1.15801 | 20884 ft | 374 kts | 17° |
| 2026-05-07 15:44 | 47.63683 | 1.17037 | 20387 ft | 373 kts | 17° |
| 2026-05-07 15:44 | 47.66124 | 1.18281 | 19966 ft | 369 kts | 17° |
| 2026-05-07 15:45 | 47.68548 | 1.19518 | 19554 ft | 365 kts | 17° |
| 2026-05-07 15:45 | 47.70922 | 1.20731 | 19139 ft | 362 kts | 17° |
| 2026-05-07 15:45 | 47.73297 | 1.21947 | 18723 ft | 359 kts | 17° |
| 2026-05-07 15:45 | 47.75632 | 1.23138 | 18314 ft | 357 kts | 17° |
| 2026-05-07 15:46 | 47.80310 | 1.25527 | 17480 ft | 352 kts | 17° |
| 2026-05-07 15:46 | 47.82596 | 1.26700 | 17067 ft | 350 kts | 17° |
| 2026-05-07 15:46 | 47.84893 | 1.27880 | 16673 ft | 347 kts | 17° |
| 2026-05-07 15:47 | 47.87173 | 1.29052 | 16284 ft | 345 kts | 17° |
| 2026-05-07 15:47 | 47.89416 | 1.30203 | 15898 ft | 343 kts | 17° |
| 2026-05-07 15:47 | 47.91678 | 1.31365 | 15506 ft | 341 kts | 17° |
| 2026-05-07 15:47 | 47.93925 | 1.32522 | 15103 ft | 339 kts | 17° |
| 2026-05-07 15:48 | 47.96123 | 1.33657 | 14732 ft | 337 kts | 17° |
| 2026-05-07 15:48 | 47.98342 | 1.34804 | 14352 ft | 335 kts | 17° |
| 2026-05-07 15:48 | 48.00526 | 1.35935 | 13976 ft | 333 kts | 17° |
| 2026-05-07 15:48 | 48.02715 | 1.37067 | 13564 ft | 332 kts | 17° |
| 2026-05-07 15:49 | 48.04869 | 1.38187 | 13186 ft | 329 kts | 18° |
| 2026-05-07 15:49 | 48.06920 | 1.39725 | 12817 ft | 328 kts | 31° |
| 2026-05-07 15:49 | 48.08797 | 1.41618 | 12457 ft | 326 kts | 32° |
| 2026-05-07 15:49 | 48.10682 | 1.43524 | 12129 ft | 323 kts | 32° |
| 2026-05-07 15:50 | 48.12496 | 1.45358 | 11966 ft | 313 kts | 32° |
| 2026-05-07 15:50 | 48.14286 | 1.47168 | 11683 ft | 307 kts | 32° |
| 2026-05-07 15:50 | 48.16059 | 1.48959 | 11427 ft | 304 kts | 32° |
| 2026-05-07 15:50 | 48.17793 | 1.50710 | 11174 ft | 302 kts | 32° |
| 2026-05-07 15:51 | 48.19546 | 1.52479 | 10932 ft | 300 kts | 32° |
| 2026-05-07 15:51 | 48.21257 | 1.54211 | 10684 ft | 299 kts | 32° |
| 2026-05-07 15:51 | 48.22986 | 1.55963 | 10446 ft | 298 kts | 32° |
| 2026-05-07 15:51 | 48.24691 | 1.57693 | 10206 ft | 297 kts | 32° |
| 2026-05-07 15:52 | 48.26380 | 1.59412 | 9974 ft | 295 kts | 32° |
| 2026-05-07 15:52 | 48.28082 | 1.61145 | 10003 ft | 295 kts | 32° |
| 2026-05-07 15:52 | 48.29794 | 1.62884 | 10034 ft | 296 kts | 32° |
| 2026-05-07 15:52 | 48.31492 | 1.64609 | 10032 ft | 295 kts | 32° |
| 2026-05-07 15:53 | 48.33197 | 1.66345 | 10028 ft | 295 kts | 32° |
| 2026-05-07 15:53 | 48.34882 | 1.68064 | 10030 ft | 295 kts | 32° |
| 2026-05-07 15:53 | 48.36588 | 1.69806 | 10032 ft | 296 kts | 32° |
| 2026-05-07 15:53 | 48.38278 | 1.71535 | 9902 ft | 298 kts | 32° |
| 2026-05-07 15:54 | 48.40008 | 1.73305 | 9433 ft | 297 kts | 33° |
| 2026-05-07 15:54 | 48.41688 | 1.75027 | 9067 ft | 293 kts | 33° |
| 2026-05-07 15:54 | 48.43383 | 1.76768 | 8635 ft | 291 kts | 34° |
| 2026-05-07 15:54 | 48.45036 | 1.78469 | 8236 ft | 289 kts | 34° |
| 2026-05-07 15:55 | 48.46696 | 1.80173 | 7831 ft | 286 kts | 34° |
| 2026-05-07 15:55 | 48.48341 | 1.81861 | 7427 ft | 284 kts | 33° |
| 2026-05-07 15:55 | 48.49957 | 1.83517 | 7034 ft | 280 kts | 33° |
| 2026-05-07 15:55 | 48.51563 | 1.85166 | 6526 ft | 277 kts | 33° |
| 2026-05-07 15:56 | 48.53132 | 1.86779 | 6000 ft | 274 kts | 33° |
| 2026-05-07 15:56 | 48.54698 | 1.88390 | 5629 ft | 265 kts | 33° |
| 2026-05-07 15:56 | 48.56159 | 1.89896 | 5486 ft | 249 kts | 33° |
| 2026-05-07 15:56 | 48.57471 | 1.91516 | 5337 ft | 237 kts | 47° |
| 2026-05-07 15:57 | 48.58364 | 1.93529 | 5233 ft | 226 kts | 61° |
| 2026-05-07 15:57 | 48.59094 | 1.95563 | 5127 ft | 217 kts | 60° |
| 2026-05-07 15:57 | 48.59798 | 1.97517 | 5035 ft | 212 kts | 60° |
| 2026-05-07 15:57 | 48.60501 | 1.99472 | 4954 ft | 211 kts | 60° |
| 2026-05-07 15:58 | 48.61207 | 2.01437 | 4793 ft | 211 kts | 60° |
| 2026-05-07 15:58 | 48.61897 | 2.03363 | 4546 ft | 209 kts | 60° |
| 2026-05-07 15:58 | 48.62592 | 2.05302 | 4267 ft | 208 kts | 60° |
| 2026-05-07 15:58 | 48.63277 | 2.07214 | 3989 ft | 208 kts | 60° |
| 2026-05-07 15:59 | 48.63964 | 2.09135 | 3710 ft | 208 kts | 60° |
| 2026-05-07 15:59 | 48.64650 | 2.11053 | 3437 ft | 211 kts | 60° |
| 2026-05-07 15:59 | 48.65354 | 2.13025 | 3149 ft | 213 kts | 60° |
| 2026-05-07 15:59 | 48.66062 | 2.15008 | 2841 ft | 214 kts | 60° |
| 2026-05-07 16:00 | 48.66751 | 2.16939 | 2558 ft | 206 kts | 60° |
| 2026-05-07 16:00 | 48.67417 | 2.18808 | 2321 ft | 194 kts | 61° |
| 2026-05-07 16:00 | 48.68035 | 2.20544 | 2038 ft | 185 kts | 61° |
| 2026-05-07 16:00 | 48.68630 | 2.22214 | 1788 ft | 175 kts | 61° |
| 2026-05-07 16:01 | 48.69192 | 2.23794 | 1555 ft | 164 kts | 60° |
| 2026-05-07 16:01 | 48.69701 | 2.25225 | 1342 ft | 146 kts | 62° |
| 2026-05-07 16:01 | 48.70161 | 2.26520 | 1142 ft | 132 kts | 62° |
| 2026-05-07 16:01 | 48.70582 | 2.27705 | 968 ft | 126 kts | 62° |
| 2026-05-07 16:02 | 48.70997 | 2.28873 | 806 ft | 125 kts | 62° |
| 2026-05-07 16:02 | 48.71413 | 2.30023 | 639 ft | 124 kts | 62° |
| 2026-05-07 16:02 | 48.71811 | 2.31159 | 478 ft | 124 kts | 62° |
| 2026-05-07 16:02 | 48.72217 | 2.32306 | 323 ft | 123 kts | 62° |
| 2026-05-07 16:03 | 48.72572 | 2.33312 | 298 ft | 89 kts | 62° |
| 2026-05-07 16:03 | 48.72788 | 2.33926 | 298 ft | 50 kts | 62° |
| 2026-05-07 16:03 | 48.72892 | 2.34221 | 297 ft | 46 kts | 62° |
| 2026-05-07 16:03 | 48.73008 | 2.34729 | 297 ft | 33 kts | 81° |
| 2026-05-07 16:04 | 48.73033 | 2.35003 | 295 ft | 23 kts | 82° |
| 2026-05-07 16:04 | 48.73039 | 2.35142 | 295 ft | 16 kts | 98° |
| 2026-05-07 16:04 | 48.72957 | 2.35298 | 297 ft | 9 kts | 154° |
| 2026-05-07 16:04 | 48.72916 | 2.35328 | 298 ft | 10 kts | 153° |
| 2026-05-07 16:05 | 48.72901 | 2.35411 | 296 ft | 9 kts | 84° |
| 2026-05-07 16:05 | 48.72906 | 2.35459 | 296 ft | 4 kts | 81° |
| 2026-05-07 16:05 | 48.72908 | 2.35476 | 300 ft | 2 kts | 81° |
| 2026-05-07 16:05 | 48.72909 | 2.35482 | 299 ft | 1 kts | 80° |
| 2026-05-07 16:06 | 48.72921 | 2.35509 | 299 ft | 5 kts | 41° |
| 2026-05-07 16:06 | 48.72969 | 2.35529 | 296 ft | 8 kts | 12° |
| 2026-05-07 16:06 | 48.73001 | 2.35545 | 298 ft | 0 kts | 26° |
| 2026-05-07 16:06 | 48.73010 | 2.35554 | 300 ft | 4 kts | 33° |
| 2026-05-07 16:07 | 48.73037 | 2.35607 | 299 ft | 8 kts | 56° |
| 2026-05-07 16:07 | 48.73069 | 2.35680 | 296 ft | 9 kts | 57° |
| 2026-05-07 16:07 | 48.73058 | 2.35723 | 299 ft | 5 kts | 183° |
| 2026-05-07 16:07 | 48.73018 | 2.35712 | 295 ft | 7 kts | 187° |
| 2026-05-07 16:08 | 48.72994 | 2.35707 | 295 ft | 3 kts | 188° |
| 2026-05-07 16:08 | 48.72993 | 2.35707 | 295 ft | 0 kts | 188° |